sensor_id;sensor_type;location;lat;lon;timestamp;temperature;humidity
22787;DHT22;63134;52.020;4.714;2023-07-16T00:01:04;17.30;78.20
22787;DHT22;63134;52.020;4.714;2023-07-16T00:03:50;17.30;77.80
22787;DHT22;63134;52.020;4.714;2023-07-16T00:06:35;17.30;77.70
22787;DHT22;63134;52.020;4.714;2023-07-16T00:09:21;17.40;77.80
22787;DHT22;63134;52.020;4.714;2023-07-16T00:12:07;17.40;77.60
22787;DHT22;63134;52.020;4.714;2023-07-16T00:14:54;17.40;77.60
22787;DHT22;63134;52.020;4.714;2023-07-16T00:17:40;17.40;77.70
22787;DHT22;63134;52.020;4.714;2023-07-16T00:20:26;17.40;77.70
22787;DHT22;63134;52.020;4.714;2023-07-16T00:23:12;17.40;77.80
22787;DHT22;63134;52.020;4.714;2023-07-16T00:25:58;17.40;78.00
22787;DHT22;63134;52.020;4.714;2023-07-16T00:28:43;17.40;78.00
22787;DHT22;63134;52.020;4.714;2023-07-16T00:31:30;17.40;78.30
22787;DHT22;63134;52.020;4.714;2023-07-16T00:34:16;17.40;78.40
22787;DHT22;63134;52.020;4.714;2023-07-16T00:37:03;17.30;78.60
22787;DHT22;63134;52.020;4.714;2023-07-16T00:39:49;17.30;78.70
22787;DHT22;63134;52.020;4.714;2023-07-16T00:42:34;17.30;78.50
22787;DHT22;63134;52.020;4.714;2023-07-16T00:45:20;17.30;78.90
22787;DHT22;63134;52.020;4.714;2023-07-16T00:48:06;17.30;78.90
22787;DHT22;63134;52.020;4.714;2023-07-16T00:50:53;17.30;79.00
22787;DHT22;63134;52.020;4.714;2023-07-16T00:53:40;17.30;79.10
22787;DHT22;63134;52.020;4.714;2023-07-16T00:56:26;17.30;78.90
22787;DHT22;63134;52.020;4.714;2023-07-16T00:59:12;17.30;79.00
22787;DHT22;63134;52.020;4.714;2023-07-16T01:01:58;17.40;79.10
22787;DHT22;63134;52.020;4.714;2023-07-16T01:04:43;17.30;79.20
22787;DHT22;63134;52.020;4.714;2023-07-16T01:07:31;17.30;79.10
22787;DHT22;63134;52.020;4.714;2023-07-16T01:10:18;17.40;79.20
22787;DHT22;63134;52.020;4.714;2023-07-16T01:13:08;17.40;79.30
22787;DHT22;63134;52.020;4.714;2023-07-16T01:15:53;17.40;79.40
22787;DHT22;63134;52.020;4.714;2023-07-16T01:18:39;17.40;79.00
22787;DHT22;63134;52.020;4.714;2023-07-16T01:21:34;17.40;79.20
22787;DHT22;63134;52.020;4.714;2023-07-16T01:30:39;17.40;79.50
22787;DHT22;63134;52.020;4.714;2023-07-16T01:33:30;17.40;79.40
22787;DHT22;63134;52.020;4.714;2023-07-16T01:36:17;17.40;79.50
22787;DHT22;63134;52.020;4.714;2023-07-16T01:39:03;17.40;79.40
22787;DHT22;63134;52.020;4.714;2023-07-16T01:41:49;17.40;79.50
22787;DHT22;63134;52.020;4.714;2023-07-16T01:44:34;17.40;79.50
22787;DHT22;63134;52.020;4.714;2023-07-16T01:47:30;17.50;79.70
22787;DHT22;63134;52.020;4.714;2023-07-16T01:50:20;17.40;79.50
22787;DHT22;63134;52.020;4.714;2023-07-16T01:53:05;17.50;79.20
22787;DHT22;63134;52.020;4.714;2023-07-16T01:55:54;17.60;79.10
22787;DHT22;63134;52.020;4.714;2023-07-16T01:58:41;17.60;79.00
22787;DHT22;63134;52.020;4.714;2023-07-16T02:01:30;17.60;78.60
22787;DHT22;63134;52.020;4.714;2023-07-16T02:04:15;17.60;78.80
22787;DHT22;63134;52.020;4.714;2023-07-16T02:07:01;17.60;78.80
22787;DHT22;63134;52.020;4.714;2023-07-16T02:09:47;17.60;78.90
22787;DHT22;63134;52.020;4.714;2023-07-16T02:12:32;17.60;79.10
22787;DHT22;63134;52.020;4.714;2023-07-16T02:15:20;17.60;79.30
22787;DHT22;63134;52.020;4.714;2023-07-16T02:18:06;17.60;79.40
22787;DHT22;63134;52.020;4.714;2023-07-16T02:20:53;17.60;79.50
22787;DHT22;63134;52.020;4.714;2023-07-16T02:23:41;17.60;79.70
22787;DHT22;63134;52.020;4.714;2023-07-16T02:26:26;17.60;79.80
22787;DHT22;63134;52.020;4.714;2023-07-16T02:29:12;17.50;79.80
22787;DHT22;63134;52.020;4.714;2023-07-16T02:31:57;17.60;79.90
22787;DHT22;63134;52.020;4.714;2023-07-16T02:34:43;17.60;80.10
22787;DHT22;63134;52.020;4.714;2023-07-16T02:37:29;17.60;80.10
22787;DHT22;63134;52.020;4.714;2023-07-16T02:40:14;17.60;80.00
22787;DHT22;63134;52.020;4.714;2023-07-16T02:43:02;17.60;80.10
22787;DHT22;63134;52.020;4.714;2023-07-16T02:45:47;17.60;80.20
22787;DHT22;63134;52.020;4.714;2023-07-16T02:48:33;17.60;80.00
22787;DHT22;63134;52.020;4.714;2023-07-16T02:51:19;17.60;80.50
22787;DHT22;63134;52.020;4.714;2023-07-16T02:54:05;17.60;80.50
22787;DHT22;63134;52.020;4.714;2023-07-16T02:56:51;17.50;80.70
22787;DHT22;63134;52.020;4.714;2023-07-16T02:59:36;17.50;81.20
22787;DHT22;63134;52.020;4.714;2023-07-16T03:02:22;17.50;81.30
22787;DHT22;63134;52.020;4.714;2023-07-16T03:05:08;17.40;82.00
22787;DHT22;63134;52.020;4.714;2023-07-16T03:07:54;17.40;82.50
22787;DHT22;63134;52.020;4.714;2023-07-16T03:10:40;17.30;82.70
22787;DHT22;63134;52.020;4.714;2023-07-16T03:13:27;17.30;82.90
22787;DHT22;63134;52.020;4.714;2023-07-16T03:16:13;17.20;83.20
22787;DHT22;63134;52.020;4.714;2023-07-16T03:19:02;17.20;83.40
22787;DHT22;63134;52.020;4.714;2023-07-16T03:21:48;17.20;83.50
22787;DHT22;63134;52.020;4.714;2023-07-16T03:24:35;17.10;83.50
22787;DHT22;63134;52.020;4.714;2023-07-16T03:27:24;17.10;83.50
22787;DHT22;63134;52.020;4.714;2023-07-16T03:30:15;17.10;83.70
22787;DHT22;63134;52.020;4.714;2023-07-16T03:33:00;17.10;83.50
22787;DHT22;63134;52.020;4.714;2023-07-16T03:35:48;17.20;83.50
22787;DHT22;63134;52.020;4.714;2023-07-16T03:38:36;17.20;82.80
22787;DHT22;63134;52.020;4.714;2023-07-16T03:41:22;17.30;82.20
22787;DHT22;63134;52.020;4.714;2023-07-16T03:44:07;17.40;82.00
22787;DHT22;63134;52.020;4.714;2023-07-16T03:46:54;17.40;81.70
22787;DHT22;63134;52.020;4.714;2023-07-16T03:49:41;17.40;81.40
22787;DHT22;63134;52.020;4.714;2023-07-16T03:52:29;17.50;81.30
22787;DHT22;63134;52.020;4.714;2023-07-16T03:55:14;17.50;81.20
22787;DHT22;63134;52.020;4.714;2023-07-16T03:58:01;17.50;81.00
22787;DHT22;63134;52.020;4.714;2023-07-16T04:00:47;17.60;80.60
22787;DHT22;63134;52.020;4.714;2023-07-16T04:03:32;17.70;80.00
22787;DHT22;63134;52.020;4.714;2023-07-16T04:06:18;17.80;79.10
22787;DHT22;63134;52.020;4.714;2023-07-16T04:09:04;17.80;78.90
22787;DHT22;63134;52.020;4.714;2023-07-16T04:11:51;17.70;78.80
22787;DHT22;63134;52.020;4.714;2023-07-16T04:14:37;17.70;78.80
22787;DHT22;63134;52.020;4.714;2023-07-16T04:17:23;17.70;79.00
22787;DHT22;63134;52.020;4.714;2023-07-16T04:20:09;17.70;78.20
22787;DHT22;63134;52.020;4.714;2023-07-16T04:22:54;17.70;78.10
22787;DHT22;63134;52.020;4.714;2023-07-16T04:25:40;17.70;77.90
22787;DHT22;63134;52.020;4.714;2023-07-16T04:28:26;17.70;77.90
22787;DHT22;63134;52.020;4.714;2023-07-16T04:31:12;17.70;77.80
22787;DHT22;63134;52.020;4.714;2023-07-16T04:33:57;17.80;77.70
22787;DHT22;63134;52.020;4.714;2023-07-16T04:36:43;17.80;77.70
22787;DHT22;63134;52.020;4.714;2023-07-16T04:39:32;17.90;77.50
22787;DHT22;63134;52.020;4.714;2023-07-16T04:42:20;18.00;77.10
22787;DHT22;63134;52.020;4.714;2023-07-16T04:45:06;18.10;76.40
22787;DHT22;63134;52.020;4.714;2023-07-16T04:47:52;18.20;75.20
22787;DHT22;63134;52.020;4.714;2023-07-16T04:50:38;18.40;74.70
22787;DHT22;63134;52.020;4.714;2023-07-16T04:53:24;18.50;74.20
22787;DHT22;63134;52.020;4.714;2023-07-16T04:56:13;18.60;73.90
22787;DHT22;63134;52.020;4.714;2023-07-16T04:59:00;18.40;73.90
22787;DHT22;63134;52.020;4.714;2023-07-16T05:01:45;18.40;73.90
22787;DHT22;63134;52.020;4.714;2023-07-16T05:04:31;18.30;74.00
22787;DHT22;63134;52.020;4.714;2023-07-16T05:07:17;18.30;73.80
22787;DHT22;63134;52.020;4.714;2023-07-16T05:10:05;18.20;74.00
22787;DHT22;63134;52.020;4.714;2023-07-16T05:12:52;18.20;73.20
22787;DHT22;63134;52.020;4.714;2023-07-16T05:15:38;18.20;73.10
22787;DHT22;63134;52.020;4.714;2023-07-16T05:18:23;18.20;72.30
22787;DHT22;63134;52.020;4.714;2023-07-16T05:21:09;18.20;72.40
22787;DHT22;63134;52.020;4.714;2023-07-16T05:23:55;18.30;71.90
22787;DHT22;63134;52.020;4.714;2023-07-16T05:26:40;18.30;72.00
22787;DHT22;63134;52.020;4.714;2023-07-16T05:29:26;18.30;72.30
22787;DHT22;63134;52.020;4.714;2023-07-16T05:32:11;18.30;72.30
22787;DHT22;63134;52.020;4.714;2023-07-16T05:35:00;18.30;72.60
22787;DHT22;63134;52.020;4.714;2023-07-16T05:37:47;18.30;72.50
22787;DHT22;63134;52.020;4.714;2023-07-16T05:40:36;18.40;72.90
22787;DHT22;63134;52.020;4.714;2023-07-16T05:43:21;18.40;73.50
22787;DHT22;63134;52.020;4.714;2023-07-16T05:46:07;18.50;72.60
22787;DHT22;63134;52.020;4.714;2023-07-16T05:48:53;18.50;72.30
22787;DHT22;63134;52.020;4.714;2023-07-16T05:51:38;18.60;71.80
22787;DHT22;63134;52.020;4.714;2023-07-16T05:54:24;18.90;71.10
22787;DHT22;63134;52.020;4.714;2023-07-16T05:57:10;19.10;70.20
22787;DHT22;63134;52.020;4.714;2023-07-16T05:59:55;19.20;69.10
22787;DHT22;63134;52.020;4.714;2023-07-16T06:02:42;19.40;68.70
22787;DHT22;63134;52.020;4.714;2023-07-16T06:05:28;19.50;68.40
22787;DHT22;63134;52.020;4.714;2023-07-16T06:08:17;19.50;67.70
22787;DHT22;63134;52.020;4.714;2023-07-16T06:11:06;19.50;67.60
22787;DHT22;63134;52.020;4.714;2023-07-16T06:13:53;19.40;67.60
22787;DHT22;63134;52.020;4.714;2023-07-16T06:16:39;19.30;67.70
22787;DHT22;63134;52.020;4.714;2023-07-16T06:19:25;19.30;67.60
22787;DHT22;63134;52.020;4.714;2023-07-16T06:22:10;19.10;68.00
22787;DHT22;63134;52.020;4.714;2023-07-16T06:24:58;19.10;68.50
22787;DHT22;63134;52.020;4.714;2023-07-16T06:27:45;19.10;68.50
22787;DHT22;63134;52.020;4.714;2023-07-16T06:30:30;19.10;68.50
22787;DHT22;63134;52.020;4.714;2023-07-16T06:33:17;19.30;68.60
22787;DHT22;63134;52.020;4.714;2023-07-16T06:36:03;19.60;68.10
22787;DHT22;63134;52.020;4.714;2023-07-16T06:38:49;19.90;66.70
22787;DHT22;63134;52.020;4.714;2023-07-16T06:41:34;20.00;65.80
22787;DHT22;63134;52.020;4.714;2023-07-16T06:44:21;20.10;65.80
22787;DHT22;63134;52.020;4.714;2023-07-16T06:47:06;20.00;66.40
22787;DHT22;63134;52.020;4.714;2023-07-16T06:49:52;19.80;67.20
22787;DHT22;63134;52.020;4.714;2023-07-16T06:52:37;19.60;67.80
22787;DHT22;63134;52.020;4.714;2023-07-16T06:55:23;19.60;68.30
22787;DHT22;63134;52.020;4.714;2023-07-16T06:58:14;19.60;68.70
22787;DHT22;63134;52.020;4.714;2023-07-16T07:00:59;19.70;68.50
22787;DHT22;63134;52.020;4.714;2023-07-16T07:03:45;19.90;67.80
22787;DHT22;63134;52.020;4.714;2023-07-16T07:06:31;20.20;67.10
22787;DHT22;63134;52.020;4.714;2023-07-16T07:09:17;20.40;66.50
22787;DHT22;63134;52.020;4.714;2023-07-16T07:12:03;20.60;65.70
22787;DHT22;63134;52.020;4.714;2023-07-16T07:14:49;20.70;65.10
22787;DHT22;63134;52.020;4.714;2023-07-16T07:17:34;20.80;64.40
22787;DHT22;63134;52.020;4.714;2023-07-16T07:20:20;20.80;64.30
22787;DHT22;63134;52.020;4.714;2023-07-16T07:23:06;20.70;64.20
22787;DHT22;63134;52.020;4.714;2023-07-16T07:25:52;20.80;64.70
22787;DHT22;63134;52.020;4.714;2023-07-16T07:28:38;21.00;64.30
22787;DHT22;63134;52.020;4.714;2023-07-16T07:31:23;21.10;62.70
22787;DHT22;63134;52.020;4.714;2023-07-16T07:34:09;21.40;62.70
22787;DHT22;63134;52.020;4.714;2023-07-16T07:36:57;21.50;62.60
22787;DHT22;63134;52.020;4.714;2023-07-16T07:39:43;21.40;60.90
22787;DHT22;63134;52.020;4.714;2023-07-16T07:42:30;21.30;61.40
22787;DHT22;63134;52.020;4.714;2023-07-16T07:45:16;21.20;61.70
22787;DHT22;63134;52.020;4.714;2023-07-16T07:48:02;21.20;62.10
22787;DHT22;63134;52.020;4.714;2023-07-16T07:50:48;21.20;62.50
22787;DHT22;63134;52.020;4.714;2023-07-16T07:53:37;21.10;62.60
22787;DHT22;63134;52.020;4.714;2023-07-16T07:56:22;21.30;63.00
22787;DHT22;63134;52.020;4.714;2023-07-16T07:59:08;21.40;61.90
22787;DHT22;63134;52.020;4.714;2023-07-16T08:01:53;21.30;62.20
22787;DHT22;63134;52.020;4.714;2023-07-16T08:04:39;21.10;62.70
22787;DHT22;63134;52.020;4.714;2023-07-16T08:07:25;20.90;63.80
22787;DHT22;63134;52.020;4.714;2023-07-16T08:10:11;20.80;64.20
22787;DHT22;63134;52.020;4.714;2023-07-16T08:12:57;20.80;64.70
22787;DHT22;63134;52.020;4.714;2023-07-16T08:15:45;21.10;64.20
22787;DHT22;63134;52.020;4.714;2023-07-16T08:18:30;21.40;63.80
22787;DHT22;63134;52.020;4.714;2023-07-16T08:21:16;21.60;62.20
22787;DHT22;63134;52.020;4.714;2023-07-16T08:24:06;21.70;61.80
22787;DHT22;63134;52.020;4.714;2023-07-16T08:26:52;21.60;61.70
22787;DHT22;63134;52.020;4.714;2023-07-16T08:29:37;21.50;62.30
22787;DHT22;63134;52.020;4.714;2023-07-16T08:32:23;21.60;63.70
22787;DHT22;63134;52.020;4.714;2023-07-16T08:35:09;21.80;62.40
22787;DHT22;63134;52.020;4.714;2023-07-16T08:38:01;22.00;61.80
22787;DHT22;63134;52.020;4.714;2023-07-16T08:40:50;22.00;61.10
22787;DHT22;63134;52.020;4.714;2023-07-16T08:43:36;22.10;60.40
22787;DHT22;63134;52.020;4.714;2023-07-16T08:46:21;21.90;60.40
22787;DHT22;63134;52.020;4.714;2023-07-16T08:49:07;22.00;60.20
22787;DHT22;63134;52.020;4.714;2023-07-16T08:51:54;22.20;60.50
22787;DHT22;63134;52.020;4.714;2023-07-16T08:54:40;22.30;59.70
22787;DHT22;63134;52.020;4.714;2023-07-16T08:57:26;22.50;59.20
22787;DHT22;63134;52.020;4.714;2023-07-16T09:00:14;22.60;58.50
22787;DHT22;63134;52.020;4.714;2023-07-16T09:03:01;22.60;58.00
22787;DHT22;63134;52.020;4.714;2023-07-16T09:05:47;22.50;58.30
22787;DHT22;63134;52.020;4.714;2023-07-16T09:08:33;22.40;58.60
22787;DHT22;63134;52.020;4.714;2023-07-16T09:11:19;22.30;59.30
22787;DHT22;63134;52.020;4.714;2023-07-16T09:14:07;22.40;58.60
22787;DHT22;63134;52.020;4.714;2023-07-16T09:16:53;22.30;58.90
22787;DHT22;63134;52.020;4.714;2023-07-16T09:19:38;22.10;59.10
22787;DHT22;63134;52.020;4.714;2023-07-16T09:22:27;22.20;59.70
22787;DHT22;63134;52.020;4.714;2023-07-16T09:25:13;22.40;59.30
22787;DHT22;63134;52.020;4.714;2023-07-16T09:28:02;22.60;58.70
22787;DHT22;63134;52.020;4.714;2023-07-16T09:30:49;22.80;58.30
22787;DHT22;63134;52.020;4.714;2023-07-16T09:33:35;23.00;57.90
22787;DHT22;63134;52.020;4.714;2023-07-16T09:36:25;23.00;57.70
22787;DHT22;63134;52.020;4.714;2023-07-16T09:39:10;23.00;57.70
22787;DHT22;63134;52.020;4.714;2023-07-16T09:41:56;23.10;57.80
22787;DHT22;63134;52.020;4.714;2023-07-16T09:44:53;23.20;56.90
22787;DHT22;63134;52.020;4.714;2023-07-16T09:47:39;23.40;55.10
22787;DHT22;63134;52.020;4.714;2023-07-16T09:50:30;23.30;55.60
22787;DHT22;63134;52.020;4.714;2023-07-16T09:53:19;23.60;55.00
22787;DHT22;63134;52.020;4.714;2023-07-16T09:56:05;23.90;54.80
22787;DHT22;63134;52.020;4.714;2023-07-16T09:58:51;23.90;54.30
22787;DHT22;63134;52.020;4.714;2023-07-16T10:01:39;23.80;54.70
22787;DHT22;63134;52.020;4.714;2023-07-16T10:04:25;23.70;55.50
22787;DHT22;63134;52.020;4.714;2023-07-16T10:07:22;23.70;55.60
22787;DHT22;63134;52.020;4.714;2023-07-16T10:10:11;23.80;55.70
22787;DHT22;63134;52.020;4.714;2023-07-16T10:13:01;23.90;56.10
22787;DHT22;63134;52.020;4.714;2023-07-16T10:15:57;23.90;56.00
22787;DHT22;63134;52.020;4.714;2023-07-16T10:18:50;24.00;55.20
22787;DHT22;63134;52.020;4.714;2023-07-16T10:21:39;24.00;55.10
22787;DHT22;63134;52.020;4.714;2023-07-16T10:24:27;24.00;54.40
22787;DHT22;63134;52.020;4.714;2023-07-16T10:27:14;24.10;54.10
22787;DHT22;63134;52.020;4.714;2023-07-16T10:30:01;24.10;54.00
22787;DHT22;63134;52.020;4.714;2023-07-16T10:32:51;24.00;54.60
22787;DHT22;63134;52.020;4.714;2023-07-16T10:35:50;24.30;54.50
22787;DHT22;63134;52.020;4.714;2023-07-16T10:38:42;24.30;54.50
22787;DHT22;63134;52.020;4.714;2023-07-16T10:41:28;24.50;54.50
22787;DHT22;63134;52.020;4.714;2023-07-16T10:44:14;24.70;53.90
22787;DHT22;63134;52.020;4.714;2023-07-16T10:47:01;24.80;52.40
22787;DHT22;63134;52.020;4.714;2023-07-16T10:49:47;24.90;52.20
22787;DHT22;63134;52.020;4.714;2023-07-16T10:52:33;24.90;53.20
22787;DHT22;63134;52.020;4.714;2023-07-16T10:55:19;25.00;51.70
22787;DHT22;63134;52.020;4.714;2023-07-16T10:58:05;25.00;51.20
22787;DHT22;63134;52.020;4.714;2023-07-16T11:00:52;24.90;51.20
22787;DHT22;63134;52.020;4.714;2023-07-16T11:03:38;25.00;51.10
22787;DHT22;63134;52.020;4.714;2023-07-16T11:06:24;25.00;50.80
22787;DHT22;63134;52.020;4.714;2023-07-16T11:09:09;24.90;50.90
22787;DHT22;63134;52.020;4.714;2023-07-16T11:11:55;24.90;50.70
22787;DHT22;63134;52.020;4.714;2023-07-16T11:14:49;25.00;50.60
22787;DHT22;63134;52.020;4.714;2023-07-16T11:17:40;25.10;49.50
22787;DHT22;63134;52.020;4.714;2023-07-16T11:20:26;24.90;50.10
22787;DHT22;63134;52.020;4.714;2023-07-16T11:23:13;25.10;50.50
22787;DHT22;63134;52.020;4.714;2023-07-16T11:26:02;25.20;49.90
22787;DHT22;63134;52.020;4.714;2023-07-16T11:28:50;25.30;50.80
22787;DHT22;63134;52.020;4.714;2023-07-16T11:31:38;25.10;50.90
22787;DHT22;63134;52.020;4.714;2023-07-16T11:34:28;24.90;51.50
22787;DHT22;63134;52.020;4.714;2023-07-16T11:37:15;24.90;51.10
22787;DHT22;63134;52.020;4.714;2023-07-16T11:42:51;24.60;51.50
22787;DHT22;63134;52.020;4.714;2023-07-16T11:45:36;24.70;51.60
22787;DHT22;63134;52.020;4.714;2023-07-16T11:48:22;24.90;51.00
22787;DHT22;63134;52.020;4.714;2023-07-16T11:51:08;24.90;49.80
22787;DHT22;63134;52.020;4.714;2023-07-16T11:53:56;25.00;50.20
22787;DHT22;63134;52.020;4.714;2023-07-16T11:56:41;24.90;49.60
22787;DHT22;63134;52.020;4.714;2023-07-16T11:59:27;24.90;49.30
22787;DHT22;63134;52.020;4.714;2023-07-16T12:02:12;25.00;49.80
22787;DHT22;63134;52.020;4.714;2023-07-16T12:04:58;25.20;49.70
22787;DHT22;63134;52.020;4.714;2023-07-16T12:07:45;25.20;49.20
22787;DHT22;63134;52.020;4.714;2023-07-16T12:10:31;25.20;48.90
22787;DHT22;63134;52.020;4.714;2023-07-16T12:13:17;25.10;49.00
22787;DHT22;63134;52.020;4.714;2023-07-16T12:16:02;25.60;50.30
22787;DHT22;63134;52.020;4.714;2023-07-16T12:18:48;27.10;48.30
22787;DHT22;63134;52.020;4.714;2023-07-16T12:21:33;27.30;46.10
22787;DHT22;63134;52.020;4.714;2023-07-16T12:24:19;26.90;46.30
22787;DHT22;63134;52.020;4.714;2023-07-16T12:27:05;26.80;46.70
22787;DHT22;63134;52.020;4.714;2023-07-16T12:29:51;26.60;46.40
22787;DHT22;63134;52.020;4.714;2023-07-16T12:32:37;27.40;46.70
22787;DHT22;63134;52.020;4.714;2023-07-16T12:35:23;28.90;46.70
22787;DHT22;63134;52.020;4.714;2023-07-16T12:38:09;30.40;42.10
22787;DHT22;63134;52.020;4.714;2023-07-16T12:40:54;30.20;40.90
22787;DHT22;63134;52.020;4.714;2023-07-16T12:43:40;29.30;41.00
22787;DHT22;63134;52.020;4.714;2023-07-16T12:46:25;29.10;42.10
22787;DHT22;63134;52.020;4.714;2023-07-16T12:49:11;28.80;42.80
22787;DHT22;63134;52.020;4.714;2023-07-16T12:51:57;29.90;42.40
22787;DHT22;63134;52.020;4.714;2023-07-16T12:54:43;30.60;39.90
22787;DHT22;63134;52.020;4.714;2023-07-16T12:57:28;29.70;40.60
22787;DHT22;63134;52.020;4.714;2023-07-16T13:00:16;28.80;41.20
22787;DHT22;63134;52.020;4.714;2023-07-16T13:03:02;27.90;42.80
22787;DHT22;63134;52.020;4.714;2023-07-16T13:05:48;28.10;44.30
22787;DHT22;63134;52.020;4.714;2023-07-16T13:08:33;29.00;43.00
22787;DHT22;63134;52.020;4.714;2023-07-16T13:11:20;29.00;42.20
22787;DHT22;63134;52.020;4.714;2023-07-16T13:14:06;30.30;41.60
22787;DHT22;63134;52.020;4.714;2023-07-16T13:16:52;29.90;40.00
22787;DHT22;63134;52.020;4.714;2023-07-16T13:19:39;29.50;40.50
22787;DHT22;63134;52.020;4.714;2023-07-16T13:22:24;29.00;42.00
22787;DHT22;63134;52.020;4.714;2023-07-16T13:25:10;28.40;42.20
22787;DHT22;63134;52.020;4.714;2023-07-16T13:27:57;27.90;43.30
22787;DHT22;63134;52.020;4.714;2023-07-16T13:30:42;28.50;43.60
22787;DHT22;63134;52.020;4.714;2023-07-16T13:33:28;29.70;42.20
22787;DHT22;63134;52.020;4.714;2023-07-16T13:36:13;29.90;40.90
22787;DHT22;63134;52.020;4.714;2023-07-16T13:38:59;30.10;40.70
22787;DHT22;63134;52.020;4.714;2023-07-16T13:41:48;30.00;39.70
22787;DHT22;63134;52.020;4.714;2023-07-16T13:44:34;30.00;38.60
22787;DHT22;63134;52.020;4.714;2023-07-16T13:47:19;29.70;39.90
22787;DHT22;63134;52.020;4.714;2023-07-16T13:50:06;30.00;39.60
22787;DHT22;63134;52.020;4.714;2023-07-16T13:52:52;30.50;39.30
22787;DHT22;63134;52.020;4.714;2023-07-16T13:55:38;31.10;37.40
22787;DHT22;63134;52.020;4.714;2023-07-16T13:58:25;31.90;35.20
22787;DHT22;63134;52.020;4.714;2023-07-16T14:01:11;32.10;34.60
22787;DHT22;63134;52.020;4.714;2023-07-16T14:03:56;32.50;35.20
22787;DHT22;63134;52.020;4.714;2023-07-16T14:06:42;34.10;34.40
22787;DHT22;63134;52.020;4.714;2023-07-16T14:09:27;35.30;32.40
22787;DHT22;63134;52.020;4.714;2023-07-16T14:12:13;35.60;31.30
22787;DHT22;63134;52.020;4.714;2023-07-16T14:14:58;36.50;31.00
22787;DHT22;63134;52.020;4.714;2023-07-16T14:17:44;37.10;30.30
22787;DHT22;63134;52.020;4.714;2023-07-16T14:20:30;37.00;28.90
22787;DHT22;63134;52.020;4.714;2023-07-16T14:23:15;36.30;29.20
22787;DHT22;63134;52.020;4.714;2023-07-16T14:26:01;35.70;29.70
22787;DHT22;63134;52.020;4.714;2023-07-16T14:28:47;34.80;30.90
22787;DHT22;63134;52.020;4.714;2023-07-16T14:31:33;34.90;32.30
22787;DHT22;63134;52.020;4.714;2023-07-16T14:34:18;34.00;32.70
22787;DHT22;63134;52.020;4.714;2023-07-16T14:37:06;33.10;33.60
22787;DHT22;63134;52.020;4.714;2023-07-16T14:39:52;32.40;35.10
22787;DHT22;63134;52.020;4.714;2023-07-16T14:42:38;32.50;35.40
22787;DHT22;63134;52.020;4.714;2023-07-16T14:45:23;33.40;35.60
22787;DHT22;63134;52.020;4.714;2023-07-16T14:48:10;34.50;33.10
22787;DHT22;63134;52.020;4.714;2023-07-16T14:50:57;35.10;32.60
22787;DHT22;63134;52.020;4.714;2023-07-16T14:53:43;36.20;31.50
22787;DHT22;63134;52.020;4.714;2023-07-16T14:56:28;36.50;30.20
22787;DHT22;63134;52.020;4.714;2023-07-16T14:59:14;35.70;31.00
22787;DHT22;63134;52.020;4.714;2023-07-16T15:01:59;35.80;31.80
22787;DHT22;63134;52.020;4.714;2023-07-16T15:04:45;36.90;31.30
22787;DHT22;63134;52.020;4.714;2023-07-16T15:07:30;37.40;30.90
22787;DHT22;63134;52.020;4.714;2023-07-16T15:10:16;36.70;29.70
22787;DHT22;63134;52.020;4.714;2023-07-16T15:13:02;36.70;30.10
22787;DHT22;63134;52.020;4.714;2023-07-16T15:15:48;37.50;29.50
22787;DHT22;63134;52.020;4.714;2023-07-16T15:18:34;35.90;30.20
22787;DHT22;63134;52.020;4.714;2023-07-16T15:21:19;35.80;32.10
22787;DHT22;63134;52.020;4.714;2023-07-16T15:24:08;35.60;31.50
22787;DHT22;63134;52.020;4.714;2023-07-16T15:26:54;35.00;33.40
22787;DHT22;63134;52.020;4.714;2023-07-16T15:29:41;35.70;32.00
22787;DHT22;63134;52.020;4.714;2023-07-16T15:32:26;36.60;30.90
22787;DHT22;63134;52.020;4.714;2023-07-16T15:35:12;37.60;30.40
22787;DHT22;63134;52.020;4.714;2023-07-16T15:37:57;38.60;29.20
22787;DHT22;63134;52.020;4.714;2023-07-16T15:40:48;37.30;28.70
22787;DHT22;63134;52.020;4.714;2023-07-16T15:43:33;35.90;30.20
22787;DHT22;63134;52.020;4.714;2023-07-16T15:46:19;35.80;30.70
22787;DHT22;63134;52.020;4.714;2023-07-16T15:49:04;36.60;31.10
22787;DHT22;63134;52.020;4.714;2023-07-16T15:51:50;37.00;30.70
22787;DHT22;63134;52.020;4.714;2023-07-16T15:54:36;37.00;29.70
22787;DHT22;63134;52.020;4.714;2023-07-16T15:57:21;36.50;29.70
22787;DHT22;63134;52.020;4.714;2023-07-16T16:00:08;36.00;30.50
22787;DHT22;63134;52.020;4.714;2023-07-16T16:03:02;35.60;31.40
22787;DHT22;63134;52.020;4.714;2023-07-16T16:05:49;35.60;31.70
22787;DHT22;63134;52.020;4.714;2023-07-16T16:08:34;35.10;31.50
22787;DHT22;63134;52.020;4.714;2023-07-16T16:11:21;34.00;32.20
22787;DHT22;63134;52.020;4.714;2023-07-16T16:14:07;33.80;32.90
22787;DHT22;63134;52.020;4.714;2023-07-16T16:16:54;34.20;32.70
22787;DHT22;63134;52.020;4.714;2023-07-16T16:19:52;34.00;32.20
22787;DHT22;63134;52.020;4.714;2023-07-16T16:22:37;34.80;32.30
22787;DHT22;63134;52.020;4.714;2023-07-16T16:25:23;35.70;31.50
22787;DHT22;63134;52.020;4.714;2023-07-16T16:28:09;36.90;29.60
22787;DHT22;63134;52.020;4.714;2023-07-16T16:30:55;37.40;28.80
22787;DHT22;63134;52.020;4.714;2023-07-16T16:33:41;37.90;27.90
22787;DHT22;63134;52.020;4.714;2023-07-16T16:36:27;37.90;27.40
22787;DHT22;63134;52.020;4.714;2023-07-16T16:39:15;38.10;27.60
22787;DHT22;63134;52.020;4.714;2023-07-16T16:42:01;37.40;27.40
22787;DHT22;63134;52.020;4.714;2023-07-16T16:44:53;36.00;28.50
22787;DHT22;63134;52.020;4.714;2023-07-16T16:47:40;35.70;29.40
22787;DHT22;63134;52.020;4.714;2023-07-16T16:50:26;36.00;29.00
22787;DHT22;63134;52.020;4.714;2023-07-16T16:53:12;35.40;29.40
22787;DHT22;63134;52.020;4.714;2023-07-16T16:55:58;34.40;30.20
22787;DHT22;63134;52.020;4.714;2023-07-16T16:58:43;33.30;31.50
22787;DHT22;63134;52.020;4.714;2023-07-16T17:01:29;32.30;32.30
22787;DHT22;63134;52.020;4.714;2023-07-16T17:04:14;31.60;33.80
22787;DHT22;63134;52.020;4.714;2023-07-16T17:07:00;31.10;34.80
22787;DHT22;63134;52.020;4.714;2023-07-16T17:09:45;30.50;35.50
22787;DHT22;63134;52.020;4.714;2023-07-16T17:12:32;30.00;36.10
22787;DHT22;63134;52.020;4.714;2023-07-16T17:15:17;29.50;37.40
22787;DHT22;63134;52.020;4.714;2023-07-16T17:18:03;29.60;38.00
22787;DHT22;63134;52.020;4.714;2023-07-16T17:20:50;30.70;37.40
22787;DHT22;63134;52.020;4.714;2023-07-16T17:23:35;31.60;36.10
22787;DHT22;63134;52.020;4.714;2023-07-16T17:26:21;30.90;36.00
22787;DHT22;63134;52.020;4.714;2023-07-16T17:29:07;29.90;37.00
22787;DHT22;63134;52.020;4.714;2023-07-16T17:31:57;29.10;38.40
22787;DHT22;63134;52.020;4.714;2023-07-16T17:34:42;28.70;39.50
22787;DHT22;63134;52.020;4.714;2023-07-16T17:37:31;28.40;40.10
22787;DHT22;63134;52.020;4.714;2023-07-16T17:40:17;28.10;40.70